CheckWX is a tool to help pilots better visualize weather data.  It is not intended as a substitute for an official pre-flight weather briefing.

13:21:14 UTC

KNDZ METAR
Whiting Field NAS South Airport
Milton, Florida, USA
Current

5 mins ago

KNDZ 221316Z 15003KT 1/4SM FG VV002 20/20 A3011 RMK AO2 T02000200 $
Observed
Feb-22 @ 13:16 UTC
Wind
  • 150° at 3 KTS
Visibility
1/4 SM
Flight Rules
LIFR
Conditions
Fog
Cloud Levels
  • Vertical visibility at 200' AGL
Temperature
20°C / 68°F
Dewpoint
20°C / 68°F
Humidity
100%
Altimeter
30.11" Hg
Pressure
1019.62 hPa
Previous

25 mins ago

KNDZ 221256Z 11004KT 1/4SM FG VV002 20/20 A3010 RMK AO2 SLP178 T02000200 $
Observed
Feb-22 @ 12:56 UTC
Wind
  • 110° at 4 KTS
Visibility
1/4 SM
Flight Rules
LIFR
Conditions
Fog
Cloud Levels
  • Vertical visibility at 200' AGL
Temperature
20°C / 68°F
Dewpoint
20°C / 68°F
Humidity
100%
Altimeter
30.1" Hg
Pressure
1017.8 hPa
Previous

1 hour ago

KNDZ 221156Z AUTO 13005KT 1/2SM FG VV002 20/20 A3009 RMK AO2 SLP176 T02000200 10206 20200 51007 $
Observed
Feb-22 @ 11:56 UTC
Wind
  • 130° at 5 KTS
Visibility
1/2 SM
Flight Rules
LIFR
Conditions
Fog
Cloud Levels
  • Vertical visibility at 200' AGL
Temperature
20°C / 68°F
Dewpoint
20°C / 68°F
Humidity
100%
Altimeter
30.09" Hg
Pressure
1017.6 hPa